createdAt,value
2019-05-01T00:00:27.170Z,98879.89
2019-05-01T00:03:10.250Z,98884.83
2019-05-01T00:05:44.187Z,98885.63
2019-05-01T00:08:14.233Z,98886.06
2019-05-01T00:10:43.646Z,98882.28
2019-05-01T00:13:13.102Z,98881.16
2019-05-01T00:15:43.045Z,98881.70
2019-05-01T00:18:12.457Z,98884.84
2019-05-01T00:20:41.863Z,98879.78
2019-05-01T00:23:11.193Z,98882.44
2019-05-01T00:25:40.562Z,98879.08
2019-05-01T00:28:10.569Z,98874.33
2019-05-01T00:30:40.192Z,98874.81
2019-05-01T00:33:09.584Z,98869.45
2019-05-01T00:35:38.935Z,98873.02
2019-05-01T00:38:08.368Z,98868.56
2019-05-01T00:40:37.726Z,98865.84
2019-05-01T00:43:07.244Z,98865.61
2019-05-01T00:45:36.709Z,98862.98
2019-05-01T00:48:06.145Z,98864.30
2019-05-01T00:50:35.603Z,98864.65
2019-05-01T00:53:05.059Z,98869.39
2019-05-01T00:55:38.997Z,98870.39
2019-05-01T00:58:25.091Z,98867.25
2019-05-01T01:01:12.400Z,98869.75
2019-05-01T01:03:41.916Z,98866.25
2019-05-01T01:06:11.335Z,98876.51
2019-05-01T01:08:40.767Z,98878.14
2019-05-01T01:11:10.345Z,98869.67
2019-05-01T01:13:39.826Z,98876.08
2019-05-01T01:16:09.157Z,98878.19
2019-05-01T01:18:38.530Z,98879.78
2019-05-01T01:21:08.084Z,98871.33
2019-05-01T01:23:37.450Z,98865.30
2019-05-01T01:26:06.802Z,98867.97
2019-05-01T01:28:36.171Z,98862.89
2019-05-01T01:31:05.518Z,98858.30
2019-05-01T01:33:34.858Z,98852.56
2019-05-01T01:36:04.243Z,98855.67
2019-05-01T01:38:33.592Z,98851.69
2019-05-01T01:41:03.069Z,98852.21
2019-05-01T01:46:33.270Z,98853.97
2019-05-01T01:49:02.654Z,98850.42
2019-05-01T01:51:32.097Z,98851.69
2019-05-01T01:54:01.750Z,98842.81
2019-05-01T01:56:31.086Z,98843.24
2019-05-01T01:59:00.481Z,98851.56
2019-05-01T02:01:31.519Z,98845.91
2019-05-01T02:07:08.936Z,98835.41
2019-05-01T02:09:38.379Z,98836.19
2019-05-01T02:12:07.938Z,98834.25
2019-05-01T02:14:37.362Z,98837.86
2019-05-01T02:17:07.112Z,98833.09
2019-05-01T02:19:36.516Z,98833.08
2019-05-01T02:22:05.874Z,98831.38
2019-05-01T02:24:35.269Z,98834.77
2019-05-01T02:27:09.337Z,98837.60
2019-05-01T02:29:40.461Z,98841.00
2019-05-01T02:32:10.055Z,98847.39
2019-05-01T02:34:41.050Z,98848.86
2019-05-01T02:37:12.894Z,98848.59
2019-05-01T02:39:43.890Z,98836.64
2019-05-01T02:42:15.045Z,98847.00
2019-05-01T02:44:47.503Z,98852.16
2019-05-01T02:47:19.771Z,98852.91
2019-05-01T02:49:55.538Z,98856.52
2019-05-01T02:52:27.792Z,98856.59
2019-05-01T02:55:00.864Z,98846.70
2019-05-01T02:57:31.646Z,98842.56
2019-05-01T03:00:01.126Z,98841.05
2019-05-01T03:02:32.201Z,98838.58
2019-05-01T03:05:01.657Z,98844.30
2019-05-01T03:07:34.165Z,98833.75
2019-05-01T03:10:08.976Z,98839.75
2019-05-01T03:12:39.132Z,98842.59
2019-05-01T03:15:09.644Z,98839.20
2019-05-01T03:20:40.622Z,98835.96
2019-05-01T03:23:14.954Z,98838.70
2019-05-01T03:25:44.499Z,98840.38
2019-05-01T03:28:14.402Z,98841.41
2019-05-01T03:30:44.139Z,98844.23
2019-05-01T03:33:13.698Z,98847.80
2019-05-01T03:35:43.270Z,98855.30
2019-05-01T03:38:13.217Z,98856.88
2019-05-01T03:40:42.562Z,98856.59
2019-05-01T03:43:12.882Z,98862.59
2019-05-01T03:45:43.403Z,98864.42
2019-05-01T03:48:12.955Z,98867.13
2019-05-01T03:50:46.333Z,98863.75
2019-05-01T03:53:13.873Z,98862.59
2019-05-01T03:55:43.336Z,98867.42
2019-05-01T03:58:14.114Z,98872.17
2019-05-01T04:00:47.958Z,98862.59
2019-05-01T04:03:31.022Z,98862.81
2019-05-01T04:06:00.535Z,98864.45
2019-05-01T04:08:29.983Z,98853.64
2019-05-01T04:10:59.326Z,98849.00
2019-05-01T04:13:28.780Z,98846.42
2019-05-01T04:15:58.701Z,98853.57
2019-05-01T04:18:28.554Z,98854.64
2019-05-01T04:20:58.513Z,98849.80
2019-05-01T04:23:28.307Z,98860.57
2019-05-01T04:25:57.901Z,98860.42
2019-05-01T04:31:08.395Z,98869.25
2019-05-01T04:33:39.408Z,98881.00
2019-05-01T04:36:10.980Z,98885.47
2019-05-01T04:38:40.400Z,98890.80
2019-05-01T04:41:09.770Z,98888.52
2019-05-01T04:43:39.762Z,98883.84
2019-05-01T04:46:09.198Z,98882.88
2019-05-01T04:48:38.655Z,98889.34
2019-05-01T04:51:08.359Z,98896.52
2019-05-01T04:53:38.136Z,98894.66
2019-05-01T04:56:07.939Z,98894.19
2019-05-01T04:58:37.384Z,98890.28
2019-05-01T05:01:07.029Z,98885.20
2019-05-01T05:03:36.652Z,98885.95
2019-05-01T05:06:10.275Z,98882.93
2019-05-01T05:08:39.946Z,98882.91
2019-05-01T05:11:11.312Z,98880.50
2019-05-01T05:13:46.700Z,98878.01
2019-05-01T05:16:19.183Z,98876.17
2019-05-01T05:18:48.849Z,98870.05
2019-05-01T05:21:18.349Z,98871.02
2019-05-01T05:23:48.582Z,98875.61
2019-05-01T05:26:25.770Z,98868.91
2019-05-01T05:28:57.063Z,98869.12
2019-05-01T05:31:30.097Z,98873.28
2019-05-01T05:34:02.250Z,98873.33
2019-05-01T05:36:33.916Z,98869.16
2019-05-01T05:39:07.323Z,98876.27
2019-05-01T05:41:37.469Z,98870.78
2019-05-01T05:44:11.142Z,98872.30
2019-05-01T05:46:40.962Z,98872.91
2019-05-01T05:49:11.840Z,98877.34
2019-05-01T05:51:45.801Z,98880.84
2019-05-01T05:54:31.719Z,98876.77
2019-05-01T05:57:22.699Z,98871.30
2019-05-01T06:00:04.496Z,98868.48
2019-05-01T06:02:47.424Z,98869.70
2019-05-01T06:05:19.963Z,98856.04
2019-05-01T06:07:59.872Z,98865.09
2019-05-01T06:10:33.279Z,98872.72
2019-05-01T06:13:04.481Z,98878.52
2019-05-01T06:15:41.264Z,98872.41
2019-05-01T06:18:11.650Z,98875.21
2019-05-01T06:20:46.937Z,98877.09
2019-05-01T06:23:34.302Z,98877.09
2019-05-01T06:26:25.709Z,98876.20
2019-05-01T06:29:00.205Z,98883.15
2019-05-01T06:31:28.547Z,98881.09
2019-05-01T06:33:58.317Z,98877.52
2019-05-01T06:36:27.727Z,98876.59
2019-05-01T06:38:57.641Z,98873.06
2019-05-01T06:41:33.727Z,98875.61
2019-05-01T06:44:04.150Z,98875.42
2019-05-01T06:46:52.011Z,98883.76
2019-05-01T06:49:24.283Z,98863.71
2019-05-01T06:51:56.497Z,98863.71
2019-05-01T06:54:28.329Z,98875.73
2019-05-01T06:57:01.621Z,98872.50
2019-05-01T06:59:33.420Z,98868.09
2019-05-01T07:02:03.376Z,98866.22
2019-05-01T07:04:38.103Z,98869.09
2019-05-01T07:07:24.083Z,98867.27
2019-05-01T07:09:48.778Z,98867.27
2019-05-01T07:12:15.476Z,98871.64
2019-05-01T07:14:50.863Z,98869.25
2019-05-01T07:17:25.432Z,98868.95
2019-05-01T07:19:58.109Z,98869.11
2019-05-01T07:22:27.592Z,98855.77
2019-05-01T07:24:59.042Z,98855.77
2019-05-01T07:27:28.386Z,98863.74
2019-05-01T07:29:59.377Z,98861.58
2019-05-01T07:32:29.197Z,98861.58
2019-05-01T07:35:03.920Z,98872.71
2019-05-01T07:37:34.425Z,98865.31
2019-05-01T07:40:05.359Z,98867.83
2019-05-01T07:42:43.705Z,98862.17
2019-05-01T07:45:29.961Z,98866.80
2019-05-01T07:48:00.891Z,98855.10
2019-05-01T07:50:33.105Z,98862.02
2019-05-01T07:53:12.705Z,98860.00
2019-05-01T07:55:48.608Z,98852.58
2019-05-01T07:58:21.035Z,98847.84
2019-05-01T08:01:12.916Z,98834.02
2019-05-01T08:03:44.165Z,98835.73
2019-05-01T08:06:16.361Z,98836.59
2019-05-01T08:08:47.531Z,98832.45
2019-05-01T08:11:21.224Z,98820.92
2019-05-01T08:13:50.622Z,98824.43
2019-05-01T08:16:20.339Z,98813.06
2019-05-01T08:18:58.865Z,98807.88
2019-05-01T08:21:39.821Z,98803.35
2019-05-01T08:24:09.519Z,98804.08
2019-05-01T08:26:39.629Z,98810.97
2019-05-01T08:29:15.030Z,98804.39
2019-05-01T08:31:48.758Z,98806.00
2019-05-01T08:34:32.847Z,98798.41
2019-05-01T08:37:07.156Z,98793.45
2019-05-01T08:39:39.635Z,98790.97
2019-05-01T08:42:18.798Z,98797.73
2019-05-01T08:45:04.973Z,98792.00
2019-05-01T08:47:43.014Z,98788.23
2019-05-01T08:50:24.642Z,98788.55
2019-05-01T08:52:55.527Z,98782.49
2019-05-01T08:55:27.459Z,98776.37
2019-05-01T08:57:57.165Z,98774.00
2019-05-01T09:00:26.528Z,98771.47
2019-05-01T09:03:08.535Z,98765.23
2019-05-01T09:05:34.076Z,98765.23
2019-05-01T09:08:03.620Z,98768.39
2019-05-01T09:10:34.357Z,98768.39
2019-05-01T09:13:11.117Z,98772.09
2019-05-01T09:15:49.642Z,98770.48
2019-05-01T09:18:38.408Z,98775.89
2019-05-01T09:21:14.170Z,98778.80
2019-05-01T09:23:46.156Z,98765.91
2019-05-01T09:26:17.159Z,98770.33
2019-05-01T09:28:53.636Z,98760.43
2019-05-01T09:31:34.006Z,98762.98
2019-05-01T09:34:19.137Z,98748.53
2019-05-01T09:36:47.388Z,98759.56
2019-05-01T09:39:21.726Z,98750.91
2019-05-01T09:42:03.091Z,98753.92
2019-05-01T09:44:42.982Z,98743.40
2019-05-01T09:47:15.459Z,98752.13
2019-05-01T09:49:53.927Z,98749.11
2019-05-01T09:52:34.031Z,98735.18
2019-05-01T09:55:06.575Z,98731.34
2019-05-01T09:57:42.887Z,98735.34
2019-05-01T10:00:17.492Z,98738.66
2019-05-01T10:02:48.432Z,98731.27
2019-05-01T10:05:28.659Z,98729.64
2019-05-01T10:08:00.142Z,98724.21
2019-05-01T10:10:29.354Z,98722.76
2019-05-01T10:13:01.307Z,98716.69
2019-05-01T10:15:34.780Z,98724.48
2019-05-01T10:18:19.848Z,98724.91
2019-05-01T10:21:07.344Z,98708.05
2019-05-01T10:23:35.324Z,98709.21
2019-05-01T10:26:18.911Z,98709.64
2019-05-01T10:28:54.263Z,98705.31
2019-05-01T10:31:37.456Z,98708.01
2019-05-01T10:34:19.377Z,98700.19
2019-05-01T10:37:04.319Z,98706.26
2019-05-01T10:39:38.688Z,98704.98
2019-05-01T10:42:15.674Z,98695.45
2019-05-01T10:44:53.706Z,98684.98
2019-05-01T10:47:39.983Z,98685.57
2019-05-01T10:50:14.840Z,98689.77
2019-05-01T10:52:43.906Z,98687.33
2019-05-01T10:55:22.177Z,98688.43
2019-05-01T11:00:30.236Z,98684.95
2019-05-01T11:03:07.828Z,98684.52
2019-05-01T11:05:54.741Z,98693.69
2019-05-01T11:08:11.292Z,98689.92
2019-05-01T11:10:47.303Z,98684.98
2019-05-01T11:13:25.004Z,98685.24
2019-05-01T11:16:01.879Z,98681.11
2019-05-01T11:18:34.251Z,98683.91
2019-05-01T11:21:10.898Z,98681.71
2019-05-01T11:23:46.363Z,98674.53
2019-05-01T11:26:19.713Z,98686.53
2019-05-01T11:28:53.976Z,98671.53
2019-05-01T11:31:55.186Z,98678.08
2019-05-01T11:34:41.696Z,98682.34
2019-05-01T11:37:13.958Z,98670.32
2019-05-01T11:40:03.137Z,98671.92
2019-05-01T11:42:43.533Z,98665.77
2019-05-01T11:45:12.608Z,98666.23
2019-05-01T11:47:46.445Z,98653.54
2019-05-01T11:50:35.935Z,98652.17
2019-05-01T11:53:11.138Z,98644.56
2019-05-01T11:55:52.565Z,98648.76
2019-05-01T11:58:33.318Z,98644.09
2019-05-01T12:01:07.165Z,98626.47
2019-05-01T12:03:37.900Z,98637.42
2019-05-01T12:08:58.337Z,98636.06
2019-05-01T12:11:29.179Z,98633.44
2019-05-01T12:14:05.929Z,98634.73
2019-05-01T12:16:55.873Z,98625.81
2019-05-01T12:19:29.517Z,98622.99
2019-05-01T12:21:59.042Z,98619.26
2019-05-01T12:24:39.492Z,98618.68
2019-05-01T12:27:08.754Z,98616.44
2019-05-01T12:29:43.072Z,98613.09
2019-05-01T12:32:14.503Z,98599.56
2019-05-01T12:34:48.500Z,98596.91
2019-05-01T12:37:34.961Z,98602.19
2019-05-01T12:40:06.992Z,98597.11
2019-05-01T12:42:39.522Z,98590.81
2019-05-01T12:45:18.406Z,98594.39
2019-05-01T12:47:53.457Z,98587.64
2019-05-01T12:50:24.811Z,98584.13
2019-05-01T12:53:00.165Z,98571.38
2019-05-01T12:55:37.324Z,98577.17
2019-05-01T12:58:06.759Z,98573.66
2019-05-01T13:00:46.292Z,98575.84
2019-05-01T13:03:18.793Z,98569.73
2019-05-01T13:13:40.872Z,98557.28
2019-05-01T13:16:17.531Z,98554.30
2019-05-01T13:18:50.302Z,98554.19
2019-05-01T13:21:42.895Z,98554.30
2019-05-01T13:24:11.124Z,98554.67
2019-05-01T13:29:37.007Z,98556.96
2019-05-01T13:32:29.559Z,98556.88
2019-05-01T13:37:59.277Z,98547.72
2019-05-01T13:40:35.290Z,98552.20
2019-05-01T13:43:11.301Z,98550.69
2019-05-01T13:45:57.417Z,98548.47
2019-05-01T13:48:28.709Z,98555.38
2019-05-01T13:51:20.109Z,98549.80
2019-05-01T13:53:54.940Z,98553.93
2019-05-01T13:56:43.189Z,98551.02
2019-05-01T13:59:24.169Z,98552.89
2019-05-01T14:01:59.130Z,98547.89
2019-05-01T14:04:30.550Z,98545.03
2019-05-01T14:07:16.571Z,98544.90
2019-05-01T14:09:49.629Z,98538.56
2019-05-01T14:12:27.538Z,98531.23
2019-05-01T14:15:02.009Z,98547.06
2019-05-01T14:17:39.855Z,98537.64
2019-05-01T14:20:31.028Z,98538.17
2019-05-01T14:23:09.867Z,98537.70
2019-05-01T14:26:08.374Z,98537.90
2019-05-01T14:28:49.538Z,98541.20
2019-05-01T14:31:20.081Z,98546.91
2019-05-01T14:36:42.274Z,98539.67
2019-05-01T14:39:14.643Z,98546.91
2019-05-01T14:41:45.719Z,98535.88
2019-05-01T14:44:16.734Z,98538.91
2019-05-01T14:46:49.042Z,98537.25
2019-05-01T14:52:39.816Z,98532.07
2019-05-01T14:54:52.419Z,98530.44
2019-05-01T14:57:23.019Z,98533.86
2019-05-01T14:59:57.839Z,98526.23
2019-05-01T15:02:31.361Z,98521.19
2019-05-01T15:05:02.219Z,98523.05
2019-05-01T15:07:43.386Z,98520.34
2019-05-01T15:10:10.474Z,98524.40
2019-05-01T15:12:42.908Z,98521.64
2019-05-01T15:15:21.048Z,98524.40
2019-05-01T15:18:04.576Z,98529.14
2019-05-01T15:23:08.849Z,98526.36
2019-05-01T15:25:50.241Z,98522.46
2019-05-01T15:28:24.616Z,98528.34
2019-05-01T15:31:00.382Z,98523.56
2019-05-01T15:33:32.329Z,98522.46
2019-05-01T15:36:03.292Z,98522.89
2019-05-01T15:38:34.534Z,98520.73
2019-05-01T15:41:14.809Z,98529.27
2019-05-01T15:44:05.112Z,98523.23
2019-05-01T15:46:36.532Z,98530.84
2019-05-01T15:49:08.696Z,98538.73
2019-05-01T15:51:38.320Z,98535.05
2019-05-01T15:54:08.222Z,98534.34
2019-05-01T15:56:39.137Z,98535.43
2019-05-01T15:59:10.143Z,98531.85
2019-05-01T16:01:39.638Z,98532.11
2019-05-01T16:04:09.225Z,98540.78
2019-05-01T16:06:38.970Z,98532.38
2019-05-01T16:09:20.399Z,98532.38
2019-05-01T16:11:48.591Z,98545.03
2019-05-01T16:14:18.490Z,98544.50
2019-05-01T16:16:48.163Z,98544.50
2019-05-01T16:19:17.415Z,98540.59
2019-05-01T16:21:50.687Z,98545.47
2019-05-01T16:24:20.191Z,98551.05
2019-05-01T16:26:49.871Z,98551.05
2019-05-01T16:29:19.426Z,98546.73
2019-05-01T16:31:49.182Z,98554.16
2019-05-01T16:34:18.678Z,98553.91
2019-05-01T16:36:51.524Z,98553.91
2019-05-01T16:39:25.912Z,98553.42
2019-05-01T16:41:55.776Z,98550.12
2019-05-01T16:44:28.384Z,98556.09
2019-05-01T16:46:59.242Z,98552.14
2019-05-01T16:49:31.436Z,98553.15
2019-05-01T16:52:01.012Z,98553.15
2019-05-01T16:54:32.008Z,98559.36
2019-05-01T16:57:04.669Z,98557.37
2019-05-01T16:59:35.805Z,98563.60
2019-05-01T17:02:18.912Z,98571.84
2019-05-01T17:04:55.866Z,98571.84
2019-05-01T17:07:26.914Z,98568.03
2019-05-01T17:10:00.863Z,98579.62
2019-05-01T17:12:31.919Z,98579.31
2019-05-01T17:15:01.407Z,98589.48
2019-05-01T17:17:31.644Z,98582.50
2019-05-01T17:20:02.528Z,98584.23
2019-05-01T17:22:37.388Z,98586.90
2019-05-01T17:25:08.102Z,98583.61
2019-05-01T17:27:37.602Z,98584.59
2019-05-01T17:30:09.190Z,98586.90
2019-05-01T17:32:44.170Z,98589.60
2019-05-01T17:35:09.989Z,98594.43
2019-05-01T17:37:39.453Z,98593.60
2019-05-01T17:40:09.150Z,98602.77
2019-05-01T17:42:38.972Z,98601.28
2019-05-01T17:45:09.973Z,98601.28
2019-05-01T17:47:39.481Z,98615.27
2019-05-01T17:50:10.460Z,98612.98
2019-05-01T17:52:43.940Z,98613.30
2019-05-01T17:55:13.135Z,98618.66
2019-05-01T17:57:42.561Z,98623.31
2019-05-01T18:00:25.414Z,98626.00
2019-05-01T18:03:02.099Z,98628.70
2019-05-01T18:05:39.411Z,98634.38
2019-05-01T18:08:08.943Z,98638.86
2019-05-01T18:10:39.671Z,98643.86
2019-05-01T18:13:09.287Z,98652.30
2019-05-01T18:15:38.941Z,98655.80
2019-05-01T18:18:10.741Z,98655.80
2019-05-01T18:20:39.366Z,98661.92
2019-05-01T18:23:29.647Z,98661.92
2019-05-01T18:26:12.657Z,98659.27
2019-05-01T18:28:47.513Z,98661.59
2019-05-01T18:31:18.680Z,98674.91
2019-05-01T18:33:48.294Z,98674.91
2019-05-01T18:36:19.899Z,98683.91
2019-05-01T18:38:52.189Z,98679.91
2019-05-01T18:41:23.223Z,98692.53
2019-05-01T18:43:55.670Z,98690.85
2019-05-01T18:46:25.127Z,98700.12
2019-05-01T18:48:54.619Z,98701.28
2019-05-01T18:51:24.177Z,98701.28
2019-05-01T18:53:57.453Z,98704.73
2019-05-01T18:56:24.705Z,98710.73
2019-05-01T18:58:54.229Z,98710.05
2019-05-01T19:01:23.806Z,98720.52
2019-05-01T19:03:53.502Z,98720.66
2019-05-01T19:06:23.130Z,98728.96
2019-05-01T19:08:54.120Z,98721.20
2019-05-01T19:11:26.636Z,98721.20
2019-05-01T19:13:56.131Z,98733.05
2019-05-01T19:16:25.656Z,98730.70
2019-05-01T19:18:55.086Z,98732.22
2019-05-01T19:21:26.183Z,98735.98
2019-05-01T19:24:00.502Z,98734.36
2019-05-01T19:26:27.302Z,98734.36
2019-05-01T19:28:58.343Z,98736.28
2019-05-01T19:31:30.558Z,98738.63
2019-05-01T19:34:00.216Z,98738.70
2019-05-01T19:36:31.204Z,98737.51
2019-05-01T19:39:00.745Z,98745.70
2019-05-01T19:41:33.425Z,98748.41
2019-05-01T19:44:03.613Z,98747.45
2019-05-01T19:46:33.070Z,98747.45
2019-05-01T19:49:04.149Z,98751.73
2019-05-01T19:51:33.555Z,98765.34
2019-05-01T19:54:03.036Z,98762.67
2019-05-01T19:56:32.572Z,98766.11
2019-05-01T19:59:02.143Z,98763.95
2019-05-01T20:01:33.034Z,98763.63
2019-05-01T20:04:02.536Z,98763.70
2019-05-01T20:06:32.041Z,98768.13
2019-05-01T20:09:01.641Z,98769.05
2019-05-01T20:11:31.141Z,98774.84
2019-05-01T20:14:00.714Z,98771.70
2019-05-01T20:16:30.250Z,98769.23
2019-05-01T20:18:59.739Z,98771.72
2019-05-01T20:21:29.199Z,98766.47
2019-05-01T20:24:09.242Z,98772.61
2019-05-01T20:26:37.456Z,98773.41
2019-05-01T20:29:08.335Z,98780.98
2019-05-01T20:31:45.789Z,98780.75
2019-05-01T20:34:18.466Z,98783.89
2019-05-01T20:36:48.492Z,98784.03
2019-05-01T20:39:17.909Z,98783.30
2019-05-01T20:41:50.209Z,98789.44
2019-05-01T20:44:24.247Z,98787.08
2019-05-01T20:46:50.763Z,98793.11
2019-05-01T20:49:20.603Z,98793.68
2019-05-01T20:51:51.045Z,98791.27
2019-05-01T20:54:21.592Z,98791.27
2019-05-01T20:56:54.561Z,98793.71
2019-05-01T20:59:24.032Z,98796.55
2019-05-01T21:01:53.518Z,98798.17
2019-05-01T21:04:24.927Z,98797.77
2019-05-01T21:07:15.397Z,98794.76
2019-05-01T21:09:48.179Z,98802.30
2019-05-01T21:12:18.008Z,98802.59
2019-05-01T21:14:49.445Z,98807.45
2019-05-01T21:17:18.793Z,98805.08
2019-05-01T21:19:48.378Z,98806.31
2019-05-01T21:22:18.076Z,98804.16
2019-05-01T21:24:47.696Z,98804.53
2019-05-01T21:27:17.044Z,98807.52
2019-05-01T21:29:48.491Z,98807.11
2019-05-01T21:32:22.648Z,98806.48
2019-05-01T21:34:49.023Z,98804.45
2019-05-01T21:37:18.584Z,98810.45
2019-05-01T21:39:48.214Z,98815.67
2019-05-01T21:42:20.268Z,98812.90
2019-05-01T21:44:49.820Z,98816.17
2019-05-01T21:47:19.247Z,98817.36
2019-05-01T21:49:48.761Z,98824.95
2019-05-01T21:52:25.068Z,98823.36
2019-05-01T21:54:50.118Z,98822.53
2019-05-01T21:57:20.589Z,98811.99
2019-05-01T21:59:50.031Z,98815.34
2019-05-01T22:02:19.481Z,98811.86
2019-05-01T22:04:48.964Z,98814.80
2019-05-01T22:07:18.935Z,98813.14
2019-05-01T22:09:50.527Z,98812.64
2019-05-01T22:12:21.570Z,98811.60
2019-05-01T22:14:55.400Z,98805.73
2019-05-01T22:17:27.262Z,98805.89
2019-05-01T22:19:57.513Z,98807.02
2019-05-01T22:22:45.953Z,98815.29
2019-05-01T22:25:20.102Z,98810.84
2019-05-01T22:27:52.708Z,98812.56
2019-05-01T22:30:42.404Z,98805.19
2019-05-01T22:33:10.281Z,98807.50
2019-05-01T22:35:44.430Z,98801.16
2019-05-01T22:38:13.867Z,98807.41
2019-05-01T22:40:44.846Z,98803.86
2019-05-01T22:43:14.440Z,98802.69
2019-05-01T22:45:45.413Z,98802.48
2019-05-01T22:48:14.838Z,98798.85
2019-05-01T22:50:44.261Z,98806.03
2019-05-01T22:53:14.374Z,98795.45
2019-05-01T22:55:43.868Z,98798.09
2019-05-01T22:58:13.474Z,98796.83
2019-05-01T23:00:47.674Z,98796.33
2019-05-01T23:03:30.894Z,98792.11
2019-05-01T23:06:02.094Z,98789.25
2019-05-01T23:08:31.373Z,98799.88
2019-05-01T23:11:00.881Z,98797.23
2019-05-01T23:13:30.531Z,98801.59
2019-05-01T23:16:00.153Z,98794.65
2019-05-01T23:18:29.511Z,98797.02
2019-05-01T23:20:58.881Z,98797.02
2019-05-01T23:23:28.258Z,98794.67
2019-05-01T23:25:57.856Z,98798.30
2019-05-01T23:28:27.231Z,98795.98
2019-05-01T23:30:57.172Z,98795.55
2019-05-01T23:33:26.724Z,98796.64
2019-05-01T23:35:56.078Z,98798.84
2019-05-01T23:38:25.513Z,98794.39
2019-05-01T23:40:54.907Z,98794.95
2019-05-01T23:43:27.856Z,98792.41
2019-05-01T23:45:55.606Z,98787.83
2019-05-01T23:48:24.940Z,98798.52
2019-05-01T23:50:54.294Z,98794.34
2019-05-01T23:53:23.740Z,98799.08
2019-05-01T23:55:54.611Z,98802.92
2019-05-01T23:58:24.307Z,98794.60
